createdAt,value
2023-03-06T00:02:31.087Z,4.30
2023-03-06T00:05:22.853Z,4.30
2023-03-06T00:08:14.115Z,4.30
2023-03-06T00:11:05.505Z,4.20
2023-03-06T00:13:57.083Z,4.20
2023-03-06T00:16:48.737Z,4.10
2023-03-06T00:19:40.487Z,4.20
2023-03-06T00:22:32.158Z,4.20
2023-03-06T00:25:25.227Z,4.20
2023-03-06T00:28:17.899Z,4.20
2023-03-06T00:31:10.817Z,4.20
2023-03-06T00:34:07.531Z,4.20
2023-03-06T00:37:07.691Z,4.10
2023-03-06T00:39:58.911Z,4.10
2023-03-06T00:42:50.689Z,4.10
2023-03-06T00:45:43.927Z,4.10
2023-03-06T00:48:35.849Z,4.00
2023-03-06T00:51:29.995Z,4.00
2023-03-06T00:54:21.752Z,4.00
2023-03-06T00:57:13.080Z,3.90
2023-03-06T01:00:05.180Z,3.80
2023-03-06T01:02:56.240Z,3.70
2023-03-06T01:05:47.703Z,3.60
2023-03-06T01:08:39.399Z,3.60
2023-03-06T01:11:30.950Z,3.60
2023-03-06T01:14:23.889Z,3.60
2023-03-06T01:17:16.112Z,3.60
2023-03-06T01:20:11.578Z,3.60
2023-03-06T01:23:04.625Z,3.50
2023-03-06T01:25:59.121Z,3.50
2023-03-06T01:28:50.824Z,3.50
2023-03-06T01:31:42.712Z,3.40
2023-03-06T01:34:34.772Z,3.40
2023-03-06T01:37:27.039Z,3.40
2023-03-06T01:40:18.507Z,3.30
2023-03-06T01:43:15.318Z,3.20
2023-03-06T01:46:30.747Z,3.30
2023-03-06T01:49:25.210Z,3.40
2023-03-06T01:55:10.133Z,3.00
2023-03-06T01:58:04.454Z,3.00
2023-03-06T02:00:55.962Z,2.90
2023-03-06T02:03:49.814Z,2.80
2023-03-06T02:06:44.202Z,2.80
2023-03-06T02:09:37.440Z,2.80
2023-03-06T02:12:29.460Z,2.90
2023-03-06T02:15:26.478Z,3.00
2023-03-06T02:18:18.149Z,3.10
2023-03-06T02:21:12.658Z,3.20
2023-03-06T02:24:11.207Z,3.20
2023-03-06T02:27:05.526Z,3.20
2023-03-06T02:29:57.182Z,3.20
2023-03-06T02:32:48.574Z,3.20
2023-03-06T02:35:41.475Z,3.30
2023-03-06T02:38:35.681Z,3.20
2023-03-06T02:41:27.456Z,3.20
2023-03-06T02:44:18.921Z,3.30
2023-03-06T02:47:10.203Z,3.30
2023-03-06T02:50:01.732Z,3.30
2023-03-06T02:52:53.117Z,3.30
2023-03-06T02:55:44.700Z,3.40
2023-03-06T02:58:40.858Z,3.30
2023-03-06T03:04:14.503Z,3.30
2023-03-06T03:07:08.284Z,3.30
2023-03-06T03:10:00.361Z,3.30
2023-03-06T03:12:52.809Z,3.30
2023-03-06T03:15:44.559Z,3.20
2023-03-06T03:18:37.033Z,3.20
2023-03-06T03:21:29.059Z,3.10
2023-03-06T03:24:20.662Z,3.10
2023-03-06T03:27:12.185Z,3.00
2023-03-06T03:30:04.704Z,3.00
2023-03-06T03:32:56.228Z,2.90
2023-03-06T03:35:48.108Z,2.90
2023-03-06T03:38:40.638Z,3.00
2023-03-06T03:41:32.012Z,3.00
2023-03-06T03:44:28.854Z,2.90
2023-03-06T03:47:20.548Z,2.90
2023-03-06T03:50:31.056Z,2.90
2023-03-06T03:53:23.638Z,2.90
2023-03-06T03:56:15.100Z,2.80
2023-03-06T03:59:08.220Z,2.80
2023-03-06T04:02:03.061Z,2.70
2023-03-06T04:04:58.475Z,2.70
2023-03-06T04:07:50.763Z,2.70
2023-03-06T04:10:42.468Z,2.70
2023-03-06T04:13:34.357Z,2.70
2023-03-06T04:16:29.171Z,2.70
2023-03-06T04:19:20.868Z,2.60
2023-03-06T04:22:13.101Z,2.60
2023-03-06T04:25:05.034Z,2.60
2023-03-06T04:27:58.603Z,2.60
2023-03-06T04:30:50.541Z,2.60
2023-03-06T04:33:42.140Z,2.60
2023-03-06T04:36:35.758Z,2.60
2023-03-06T04:39:28.437Z,2.60
2023-03-06T04:42:20.326Z,2.60
2023-03-06T04:45:13.417Z,2.60
2023-03-06T04:48:04.885Z,2.70
2023-03-06T04:53:40.829Z,2.70
2023-03-06T04:56:32.312Z,2.90
2023-03-06T04:59:23.701Z,2.90
2023-03-06T05:02:14.932Z,2.80
2023-03-06T05:05:07.719Z,2.90
2023-03-06T05:08:01.764Z,2.90
2023-03-06T05:10:57.997Z,2.80
2023-03-06T05:13:49.693Z,2.70
2023-03-06T05:16:41.037Z,2.70
2023-03-06T05:19:32.764Z,2.70
2023-03-06T05:22:24.405Z,2.70
2023-03-06T05:25:16.534Z,2.50
2023-03-06T05:28:21.266Z,2.50
2023-03-06T05:31:13.247Z,2.40
2023-03-06T05:34:04.779Z,2.30
2023-03-06T05:37:03.970Z,2.30
2023-03-06T05:39:55.624Z,2.30
2023-03-06T05:42:47.221Z,2.30
2023-03-06T05:45:39.173Z,2.20
2023-03-06T05:48:30.753Z,2.20
2023-03-06T05:51:22.223Z,2.20
2023-03-06T05:54:13.877Z,2.20
2023-03-06T05:57:05.995Z,2.20
2023-03-06T05:59:57.478Z,2.30
2023-03-06T06:02:51.878Z,2.30
2023-03-06T06:05:43.294Z,2.30
2023-03-06T06:08:35.189Z,2.30
2023-03-06T06:11:26.632Z,2.30
2023-03-06T06:14:17.859Z,2.40
2023-03-06T06:17:09.927Z,2.30
2023-03-06T06:20:01.229Z,2.40
2023-03-06T06:22:52.934Z,2.30
2023-03-06T06:25:44.714Z,2.30
2023-03-06T06:28:38.535Z,2.20
2023-03-06T06:31:30.166Z,2.20
2023-03-06T06:34:22.100Z,2.30
2023-03-06T06:37:13.449Z,2.30
2023-03-06T06:40:05.615Z,2.30
2023-03-06T06:42:57.301Z,2.20
2023-03-06T06:45:49.624Z,2.30
2023-03-06T06:48:41.745Z,2.20
2023-03-06T06:51:37.616Z,2.20
2023-03-06T06:54:28.940Z,2.20
2023-03-06T06:57:20.008Z,2.10
2023-03-06T07:00:16.014Z,2.10
2023-03-06T07:05:49.541Z,2.10
2023-03-06T07:08:40.766Z,2.10
2023-03-06T07:11:32.220Z,2.10
2023-03-06T07:14:23.704Z,2.10
2023-03-06T07:17:14.840Z,2.20
2023-03-06T07:20:07.352Z,2.20
2023-03-06T07:22:59.249Z,2.30
2023-03-06T07:25:50.828Z,2.40
2023-03-06T07:28:52.021Z,2.40
2023-03-06T07:31:35.534Z,2.40
2023-03-06T07:34:27.809Z,2.50
2023-03-06T07:37:20.254Z,2.60
2023-03-06T07:40:14.216Z,2.60
2023-03-06T07:43:18.829Z,2.70
2023-03-06T07:46:01.226Z,2.80
2023-03-06T07:48:52.460Z,2.70
2023-03-06T07:51:44.051Z,2.70
2023-03-06T07:54:37.614Z,2.80
2023-03-06T07:57:29.543Z,2.80
2023-03-06T08:00:21.821Z,2.80
2023-03-06T08:03:14.473Z,2.80
2023-03-06T08:06:11.432Z,2.80
2023-03-06T08:09:03.234Z,2.80
2023-03-06T08:11:54.713Z,2.90
2023-03-06T08:14:46.221Z,3.00
2023-03-06T08:17:45.973Z,3.10
2023-03-06T08:20:40.083Z,3.20
2023-03-06T08:23:39.366Z,3.30
2023-03-06T08:26:32.176Z,3.50
2023-03-06T08:29:23.596Z,3.60
2023-03-06T08:32:14.993Z,3.70
2023-03-06T08:35:08.647Z,3.70
2023-03-06T08:37:59.917Z,3.70
2023-03-06T08:40:54.017Z,3.90
2023-03-06T08:43:45.424Z,4.00
2023-03-06T08:46:40.079Z,4.10
2023-03-06T08:49:33.127Z,4.20
2023-03-06T08:52:24.522Z,4.30
2023-03-06T08:55:16.842Z,4.40
2023-03-06T08:58:24.760Z,4.30
2023-03-06T09:01:19.498Z,4.30
2023-03-06T09:04:12.786Z,4.40
2023-03-06T09:07:04.827Z,4.50
2023-03-06T09:10:00.813Z,4.60
2023-03-06T09:12:56.599Z,4.70
2023-03-06T09:15:50.245Z,4.80
2023-03-06T09:18:47.547Z,4.80
2023-03-06T09:21:51.487Z,4.90
2023-03-06T09:24:45.847Z,4.90
2023-03-06T09:27:40.687Z,5.10
2023-03-06T09:30:33.440Z,5.20
2023-03-06T09:33:27.487Z,5.20
2023-03-06T09:36:25.803Z,5.20
2023-03-06T09:39:23.088Z,5.30
2023-03-06T09:42:24.762Z,5.50
2023-03-06T09:45:28.995Z,5.50
2023-03-06T09:51:09.372Z,5.70
2023-03-06T09:54:06.979Z,5.70
2023-03-06T09:56:58.923Z,5.70
2023-03-06T09:59:54.766Z,5.80
2023-03-06T10:02:49.156Z,5.80
2023-03-06T10:05:45.538Z,5.90
2023-03-06T10:08:41.981Z,6.10
2023-03-06T10:11:38.281Z,6.10
2023-03-06T10:14:35.730Z,6.20
2023-03-06T10:17:29.704Z,6.20
2023-03-06T10:20:26.826Z,6.30
2023-03-06T10:23:32.977Z,6.40
2023-03-06T10:26:32.728Z,6.40
2023-03-06T10:30:02.671Z,6.50
2023-03-06T10:35:32.411Z,6.60
2023-03-06T10:38:26.375Z,6.70
2023-03-06T10:41:27.474Z,6.80
2023-03-06T10:44:27.155Z,6.90
2023-03-06T10:47:33.955Z,7.00
2023-03-06T10:50:30.855Z,7.10
2023-03-06T10:53:29.531Z,7.20
2023-03-06T10:56:28.037Z,7.30
2023-03-06T10:59:22.707Z,7.40
2023-03-06T11:02:28.347Z,7.40
2023-03-06T11:05:22.597Z,7.50
2023-03-06T11:08:29.632Z,7.60
2023-03-06T11:11:37.194Z,7.60
2023-03-06T11:17:32.259Z,7.90
2023-03-06T11:20:50.068Z,8.10
2023-03-06T11:23:43.168Z,8.20
2023-03-06T11:26:42.340Z,8.20
2023-03-06T11:29:40.948Z,8.50
2023-03-06T11:32:37.400Z,8.60
2023-03-06T11:35:33.656Z,8.70
2023-03-06T11:38:31.176Z,8.90
2023-03-06T11:41:36.825Z,9.00
2023-03-06T11:47:34.208Z,9.20
2023-03-06T11:50:29.465Z,9.40
2023-03-06T11:53:23.420Z,9.50
2023-03-06T11:56:34.450Z,9.60
2023-03-06T12:02:48.317Z,9.70
2023-03-06T12:05:45.501Z,9.70
2023-03-06T12:08:45.188Z,9.80
2023-03-06T12:11:40.830Z,10.00
2023-03-06T12:14:40.431Z,10.10
2023-03-06T12:17:38.526Z,10.20
2023-03-06T12:20:44.089Z,10.20
2023-03-06T12:23:47.412Z,10.20
2023-03-06T12:26:53.925Z,10.30
2023-03-06T12:30:03.878Z,10.40
2023-03-06T12:33:00.376Z,10.50
2023-03-06T12:36:02.066Z,10.70
2023-03-06T12:39:07.363Z,10.80
2023-03-06T12:42:33.619Z,10.80
2023-03-06T12:45:33.115Z,10.80
2023-03-06T12:48:28.092Z,10.80
2023-03-06T12:51:22.326Z,11.00
2023-03-06T12:54:19.334Z,11.20
2023-03-06T12:57:13.403Z,11.20
2023-03-06T13:00:04.798Z,11.10
2023-03-06T13:03:20.562Z,11.10
2023-03-06T13:06:51.515Z,11.20
2023-03-06T13:10:22.649Z,11.20
2023-03-06T13:13:42.204Z,11.30
2023-03-06T13:16:36.767Z,11.40
2023-03-06T13:19:28.883Z,11.40
2023-03-06T13:22:29.304Z,11.40
2023-03-06T13:28:50.675Z,11.50
2023-03-06T13:32:19.678Z,11.70
2023-03-06T13:35:57.831Z,11.70
2023-03-06T13:38:58.260Z,11.70
2023-03-06T13:42:00.324Z,11.70
2023-03-06T13:44:56.762Z,11.60
2023-03-06T13:48:37.180Z,11.60
2023-03-06T13:50:52.593Z,11.70
2023-03-06T13:54:12.969Z,11.70
2023-03-06T13:57:40.314Z,11.80
2023-03-06T14:00:50.223Z,12.00
2023-03-06T14:04:41.827Z,11.90
2023-03-06T14:07:40.245Z,11.90
2023-03-06T14:14:25.308Z,12.00
2023-03-06T14:21:01.143Z,12.00
2023-03-06T14:24:40.134Z,12.00
2023-03-06T14:28:14.100Z,12.00
2023-03-06T14:31:38.314Z,12.10
2023-03-06T14:35:15.326Z,12.30
2023-03-06T14:41:59.253Z,13.80
2023-03-06T14:45:31.418Z,14.10
2023-03-06T14:49:10.281Z,14.30
2023-03-06T14:52:35.159Z,14.60
2023-03-06T14:56:07.227Z,14.60
2023-03-06T14:59:38.185Z,14.30
2023-03-06T15:03:10.826Z,13.30
2023-03-06T15:06:46.712Z,12.70
2023-03-06T15:10:16.244Z,12.40
2023-03-06T15:13:49.378Z,12.10
2023-03-06T15:17:31.597Z,12.20
2023-03-06T15:21:11.188Z,12.10
2023-03-06T15:27:37.598Z,12.20
2023-03-06T15:30:31.207Z,12.20
2023-03-06T15:33:29.879Z,12.20
2023-03-06T15:36:35.384Z,12.10
2023-03-06T15:39:47.540Z,12.40
2023-03-06T15:42:38.115Z,13.30
2023-03-06T15:45:32.291Z,13.80
2023-03-06T15:48:23.715Z,14.40
2023-03-06T15:51:15.164Z,14.20
2023-03-06T15:54:12.569Z,14.30
2023-03-06T15:57:05.207Z,14.60
2023-03-06T16:00:26.438Z,14.60
2023-03-06T16:03:10.701Z,14.60
2023-03-06T16:06:05.320Z,14.50
2023-03-06T16:09:01.272Z,14.40
2023-03-06T16:11:52.936Z,14.40
2023-03-06T16:14:44.628Z,14.50
2023-03-06T16:17:35.912Z,14.40
2023-03-06T16:20:33.792Z,14.20
2023-03-06T16:23:27.541Z,14.40
2023-03-06T16:26:23.096Z,14.00
2023-03-06T16:29:19.405Z,13.60
2023-03-06T16:32:21.241Z,13.50
2023-03-06T16:35:14.369Z,13.00
2023-03-06T16:38:05.816Z,12.60
2023-03-06T16:41:04.989Z,12.30
2023-03-06T16:43:59.999Z,12.00
2023-03-06T16:46:52.835Z,11.70
2023-03-06T16:49:44.357Z,11.50
2023-03-06T16:52:36.182Z,11.40
2023-03-06T16:55:29.444Z,11.20
2023-03-06T16:58:20.763Z,11.20
2023-03-06T17:01:18.479Z,11.10
2023-03-06T17:04:10.429Z,11.00
2023-03-06T17:07:02.628Z,11.00
2023-03-06T17:09:54.283Z,10.90
2023-03-06T17:12:47.554Z,10.90
2023-03-06T17:15:39.540Z,10.90
2023-03-06T17:18:43.840Z,10.90
2023-03-06T17:21:55.004Z,10.80
2023-03-06T17:24:43.038Z,10.80
2023-03-06T17:27:38.393Z,10.80
2023-03-06T17:30:29.935Z,10.70
2023-03-06T17:33:21.967Z,10.70
2023-03-06T17:36:15.538Z,10.70
2023-03-06T17:42:36.557Z,10.70
2023-03-06T17:45:47.947Z,10.70
2023-03-06T17:48:41.633Z,10.60
2023-03-06T17:51:32.793Z,10.50
2023-03-06T17:54:26.235Z,10.50
2023-03-06T17:57:17.443Z,10.40
2023-03-06T18:00:11.097Z,10.30
2023-03-06T18:03:06.776Z,10.20
2023-03-06T18:06:04.203Z,10.20
2023-03-06T18:08:56.434Z,10.10
2023-03-06T18:11:55.805Z,10.10
2023-03-06T18:14:50.859Z,10.10
2023-03-06T18:17:42.185Z,10.10
2023-03-06T18:20:33.876Z,10.00
2023-03-06T18:23:32.833Z,10.00
2023-03-06T18:26:24.485Z,10.00
2023-03-06T18:29:16.344Z,9.80
2023-03-06T18:32:10.166Z,9.80
2023-03-06T18:35:01.814Z,9.80
2023-03-06T18:37:53.587Z,9.60
2023-03-06T18:40:46.489Z,9.50
2023-03-06T18:43:38.759Z,9.40
2023-03-06T18:46:31.759Z,9.50
2023-03-06T18:49:25.770Z,9.40
2023-03-06T18:52:18.655Z,9.40
2023-03-06T18:55:11.672Z,9.40
2023-03-06T18:58:03.970Z,9.40
2023-03-06T19:00:57.704Z,9.30
2023-03-06T19:03:54.646Z,9.20
2023-03-06T19:06:44.891Z,9.10
2023-03-06T19:09:36.731Z,9.10
2023-03-06T19:12:28.569Z,9.10
2023-03-06T19:15:20.229Z,9.00
2023-03-06T19:18:12.702Z,9.00
2023-03-06T19:21:11.642Z,8.90
2023-03-06T19:24:04.764Z,8.80
2023-03-06T19:26:56.238Z,8.70
2023-03-06T19:29:47.230Z,8.60
2023-03-06T19:32:38.915Z,8.50
2023-03-06T19:35:30.331Z,8.50
2023-03-06T19:38:23.703Z,8.50
2023-03-06T19:41:16.117Z,8.40
2023-03-06T19:44:07.667Z,8.40
2023-03-06T19:46:59.052Z,8.30
2023-03-06T19:49:50.220Z,8.30
2023-03-06T19:52:50.066Z,8.10
2023-03-06T19:55:41.541Z,8.00
2023-03-06T19:58:33.240Z,8.00
2023-03-06T20:01:27.100Z,7.90
2023-03-06T20:04:20.247Z,8.10
2023-03-06T20:07:13.640Z,8.10
2023-03-06T20:10:05.599Z,8.10
2023-03-06T20:12:57.080Z,7.90
2023-03-06T20:15:48.917Z,7.80
2023-03-06T20:18:40.649Z,7.80
2023-03-06T20:21:33.698Z,7.80
2023-03-06T20:27:17.287Z,7.70
2023-03-06T20:30:10.412Z,7.60
2023-03-06T20:33:01.947Z,7.60
2023-03-06T20:35:53.497Z,7.50
2023-03-06T20:38:45.194Z,7.50
2023-03-06T20:41:36.739Z,7.50
2023-03-06T20:44:28.432Z,7.50
2023-03-06T20:47:19.686Z,7.50
2023-03-06T20:50:12.975Z,7.40
2023-03-06T20:53:04.239Z,7.30
2023-03-06T20:55:55.667Z,7.30
2023-03-06T20:58:51.359Z,7.20
2023-03-06T21:01:45.373Z,7.20
2023-03-06T21:04:38.315Z,7.20
2023-03-06T21:07:30.042Z,7.20
2023-03-06T21:10:21.830Z,7.20
2023-03-06T21:13:13.652Z,7.10
2023-03-06T21:16:07.578Z,7.00
2023-03-06T21:19:00.312Z,7.10
2023-03-06T21:21:51.791Z,7.10
2023-03-06T21:28:13.687Z,7.00
2023-03-06T21:31:06.864Z,6.90
2023-03-06T21:33:59.658Z,6.80
2023-03-06T21:36:53.078Z,6.70
2023-03-06T21:39:44.683Z,6.70
2023-03-06T21:42:37.193Z,6.50
2023-03-06T21:45:30.506Z,6.30
2023-03-06T21:48:22.006Z,6.20
2023-03-06T22:05:21.682Z,6.10
2023-03-06T22:08:13.080Z,5.90
2023-03-06T22:11:09.102Z,5.90
2023-03-06T22:14:01.300Z,5.80
2023-03-06T22:16:54.313Z,5.80
2023-03-06T22:19:45.603Z,5.70
2023-03-06T22:25:53.234Z,5.60
2023-03-06T22:28:45.327Z,5.60
2023-03-06T22:31:38.237Z,5.50
2023-03-06T22:34:39.789Z,5.60
2023-03-06T22:37:32.516Z,5.60
2023-03-06T22:40:24.204Z,5.60
2023-03-06T22:43:17.676Z,5.60
2023-03-06T22:46:11.152Z,5.40
2023-03-06T22:49:03.368Z,5.40
2023-03-06T22:54:36.758Z,5.20
2023-03-06T22:57:28.266Z,5.20
2023-03-06T23:00:20.933Z,5.20
2023-03-06T23:03:12.238Z,5.10
2023-03-06T23:06:05.175Z,5.10
2023-03-06T23:09:09.361Z,5.10
2023-03-06T23:15:02.933Z,5.50
2023-03-06T23:18:12.338Z,5.30
2023-03-06T23:21:23.637Z,5.20
2023-03-06T23:24:36.288Z,5.30
2023-03-06T23:27:35.309Z,5.30
2023-03-06T23:30:26.834Z,5.40
2023-03-06T23:33:18.658Z,5.30
2023-03-06T23:36:12.695Z,5.20
2023-03-06T23:39:04.233Z,5.10
2023-03-06T23:41:55.454Z,5.10
2023-03-06T23:44:46.807Z,5.00
2023-03-06T23:47:38.344Z,5.00
2023-03-06T23:50:29.772Z,4.90
2023-03-06T23:53:22.621Z,4.90
2023-03-06T23:56:14.797Z,4.90
2023-03-06T23:59:06.246Z,4.90
